createdAt,value
2023-05-24T00:02:28.343Z,20.04
2023-05-24T00:05:00.949Z,20.30
2023-05-24T00:07:32.440Z,20.43
2023-05-24T00:10:00.626Z,20.14
2023-05-24T00:12:29.204Z,20.18
2023-05-24T00:14:57.608Z,20.32
2023-05-24T00:17:26.622Z,20.28
2023-05-24T00:19:55.017Z,20.31
2023-05-24T00:22:23.718Z,20.29
2023-05-24T00:24:53.386Z,20.72
2023-05-24T00:27:22.367Z,20.35
2023-05-24T00:29:50.806Z,20.41
2023-05-24T00:32:19.499Z,20.36
2023-05-24T00:34:47.818Z,20.39
2023-05-24T00:37:16.433Z,20.33
2023-05-24T00:39:44.758Z,20.36
2023-05-24T00:42:14.623Z,20.63
2023-05-24T00:44:43.070Z,20.34
2023-05-24T00:47:12.104Z,20.19
2023-05-24T00:49:40.451Z,20.26
2023-05-24T00:52:09.953Z,20.25
2023-05-24T00:54:40.909Z,20.20
2023-05-24T00:57:09.211Z,21.01
2023-05-24T00:59:39.072Z,20.31
2023-05-24T01:02:07.644Z,19.95
2023-05-24T01:04:37.951Z,19.88
2023-05-24T01:07:14.717Z,20.21
2023-05-24T01:09:57.772Z,20.12
2023-05-24T01:12:31.582Z,20.07
2023-05-24T01:15:10.665Z,20.23
2023-05-24T01:17:48.562Z,20.21
2023-05-24T01:20:19.745Z,19.87
2023-05-24T01:23:09.165Z,20.21
2023-05-24T01:25:47.068Z,19.88
2023-05-24T01:28:18.205Z,19.87
2023-05-24T01:30:46.993Z,19.70
2023-05-24T01:33:15.801Z,19.56
2023-05-24T01:35:44.143Z,19.51
2023-05-24T01:38:12.833Z,19.53
2023-05-24T01:40:42.311Z,19.78
2023-05-24T01:43:19.068Z,19.88
2023-05-24T01:45:54.416Z,19.79
2023-05-24T01:48:32.642Z,19.89
2023-05-24T01:51:03.026Z,19.64
2023-05-24T01:53:35.325Z,19.65
2023-05-24T01:56:05.093Z,19.33
2023-05-24T01:58:35.119Z,19.54
2023-05-24T02:01:03.649Z,19.40
2023-05-24T02:03:33.015Z,19.49
2023-05-24T02:06:01.496Z,19.35
2023-05-24T02:08:30.031Z,19.43
2023-05-24T02:10:58.529Z,19.50
2023-05-24T02:13:26.978Z,19.44
2023-05-24T02:15:56.645Z,19.83
2023-05-24T02:18:25.274Z,19.56
2023-05-24T02:20:53.618Z,19.48
2023-05-24T02:23:22.166Z,19.50
2023-05-24T02:25:50.793Z,19.37
2023-05-24T02:28:19.405Z,19.40
2023-05-24T02:30:47.908Z,19.47
2023-05-24T02:33:17.875Z,19.66
2023-05-24T02:35:46.355Z,19.20
2023-05-24T02:38:14.963Z,19.22
2023-05-24T02:40:43.610Z,19.20
2023-05-24T02:43:12.440Z,19.26
2023-05-24T02:45:40.773Z,19.17
2023-05-24T02:48:09.827Z,19.01
2023-05-24T02:50:39.596Z,19.35
2023-05-24T02:53:08.877Z,19.07
2023-05-24T02:55:38.071Z,19.12
2023-05-24T02:58:08.557Z,19.06
2023-05-24T03:00:37.379Z,19.06
2023-05-24T03:03:06.199Z,19.06
2023-05-24T03:05:34.730Z,19.14
2023-05-24T03:08:05.081Z,19.46
2023-05-24T03:10:33.394Z,19.19
2023-05-24T03:13:02.033Z,19.23
2023-05-24T03:15:30.850Z,19.23
2023-05-24T03:17:59.738Z,19.23
2023-05-24T03:20:28.461Z,19.19
2023-05-24T03:22:57.143Z,19.24
2023-05-24T03:25:27.508Z,19.50
2023-05-24T03:27:56.065Z,19.21
2023-05-24T03:30:24.828Z,19.16
2023-05-24T03:32:53.475Z,19.22
2023-05-24T03:35:21.839Z,19.10
2023-05-24T03:37:50.905Z,19.21
2023-05-24T03:40:19.268Z,19.23
2023-05-24T03:42:49.313Z,19.64
2023-05-24T03:45:27.034Z,19.25
2023-05-24T03:48:03.940Z,19.14
2023-05-24T03:50:32.373Z,19.13
2023-05-24T03:53:01.252Z,19.08
2023-05-24T03:55:29.528Z,19.23
2023-05-24T03:57:59.757Z,19.48
2023-05-24T04:00:28.340Z,19.16
2023-05-24T04:02:57.038Z,19.10
2023-05-24T04:05:27.335Z,19.22
2023-05-24T04:07:55.933Z,18.98
2023-05-24T04:10:24.250Z,18.94
2023-05-24T04:12:53.042Z,19.08
2023-05-24T04:15:23.141Z,19.37
2023-05-24T04:17:55.382Z,19.15
2023-05-24T04:20:25.978Z,19.24
2023-05-24T04:22:56.268Z,19.21
2023-05-24T04:25:25.012Z,19.13
2023-05-24T04:27:53.755Z,18.87
2023-05-24T04:30:23.600Z,18.94
2023-05-24T04:32:52.902Z,18.33
2023-05-24T04:35:21.744Z,18.36
2023-05-24T04:37:50.518Z,18.27
2023-05-24T04:40:20.792Z,18.23
2023-05-24T04:42:51.787Z,18.40
2023-05-24T04:45:20.135Z,18.24
2023-05-24T04:47:51.388Z,18.43
2023-05-24T04:50:19.587Z,17.86
2023-05-24T04:52:48.453Z,17.75
2023-05-24T04:55:16.712Z,17.75
2023-05-24T04:57:45.482Z,17.73
2023-05-24T05:00:15.066Z,17.75
2023-05-24T05:02:43.626Z,17.42
2023-05-24T05:05:13.714Z,17.92
2023-05-24T05:07:42.247Z,17.70
2023-05-24T05:10:10.924Z,17.91
2023-05-24T05:12:40.117Z,17.70
2023-05-24T05:15:10.563Z,17.90
2023-05-24T05:17:39.162Z,17.71
2023-05-24T05:20:09.151Z,17.59
2023-05-24T05:22:39.247Z,17.87
2023-05-24T05:25:08.101Z,17.98
2023-05-24T05:27:36.801Z,17.91
2023-05-24T05:30:05.863Z,18.03
2023-05-24T05:32:34.517Z,18.10
2023-05-24T05:35:02.852Z,17.88
2023-05-24T05:37:31.495Z,17.99
2023-05-24T05:40:01.243Z,18.32
2023-05-24T05:42:30.034Z,18.14
2023-05-24T05:44:58.549Z,18.21
2023-05-24T05:47:27.579Z,18.26
2023-05-24T05:49:59.903Z,18.30
2023-05-24T05:52:28.828Z,18.22
2023-05-24T05:54:57.231Z,18.33
2023-05-24T05:57:27.609Z,18.74
2023-05-24T05:59:55.952Z,18.45
2023-05-24T06:02:24.777Z,18.41
2023-05-24T06:04:53.603Z,18.48
2023-05-24T06:07:22.361Z,18.42
2023-05-24T06:09:50.685Z,18.35
2023-05-24T06:12:19.201Z,18.33
2023-05-24T06:14:50.749Z,18.70
2023-05-24T06:17:19.692Z,18.03
2023-05-24T06:19:47.930Z,18.16
2023-05-24T06:22:17.790Z,18.36
2023-05-24T06:24:46.048Z,18.52
2023-05-24T06:27:14.717Z,18.74
2023-05-24T06:29:42.916Z,18.82
2023-05-24T06:32:15.636Z,19.29
2023-05-24T06:34:44.693Z,18.92
2023-05-24T06:37:15.304Z,18.52
2023-05-24T06:39:46.998Z,18.73
2023-05-24T06:42:15.767Z,18.26
2023-05-24T06:44:44.418Z,18.35
2023-05-24T06:47:14.426Z,18.52
2023-05-24T06:49:43.171Z,18.10
2023-05-24T06:52:11.801Z,18.07
2023-05-24T06:54:40.424Z,17.96
2023-05-24T06:57:09.363Z,18.18
2023-05-24T06:59:37.673Z,17.98
2023-05-24T07:02:06.372Z,18.02
2023-05-24T07:04:36.761Z,18.30
2023-05-24T07:07:05.675Z,18.02
2023-05-24T07:09:34.344Z,17.73
2023-05-24T07:12:02.787Z,17.77
2023-05-24T07:14:31.288Z,17.80
2023-05-24T07:17:00.108Z,17.88
2023-05-24T07:19:29.888Z,17.72
2023-05-24T07:22:00.359Z,17.70
2023-05-24T07:24:29.582Z,17.26
2023-05-24T07:26:58.498Z,17.29
2023-05-24T07:29:27.196Z,17.40
2023-05-24T07:31:58.187Z,17.64
2023-05-24T07:34:30.299Z,17.38
2023-05-24T07:37:00.799Z,17.58
2023-05-24T07:39:29.657Z,17.39
2023-05-24T07:41:58.326Z,17.34
2023-05-24T07:44:27.069Z,17.53
2023-05-24T07:46:56.083Z,17.69
2023-05-24T07:49:24.639Z,18.09
2023-05-24T07:51:54.044Z,18.30
2023-05-24T07:54:23.783Z,18.85
2023-05-24T07:56:52.551Z,18.58
2023-05-24T07:59:21.262Z,18.45
2023-05-24T08:01:51.343Z,18.49
2023-05-24T08:04:20.078Z,18.49
2023-05-24T08:06:48.906Z,18.45
2023-05-24T08:09:17.740Z,18.60
2023-05-24T08:11:47.659Z,18.78
2023-05-24T08:14:15.866Z,18.44
2023-05-24T08:16:44.567Z,18.51
2023-05-24T08:19:13.133Z,18.61
2023-05-24T08:21:42.476Z,18.71
2023-05-24T08:24:10.946Z,18.63
2023-05-24T08:26:39.820Z,18.75
2023-05-24T08:29:09.615Z,19.07
2023-05-24T08:31:38.600Z,18.87
2023-05-24T08:34:07.266Z,18.62
2023-05-24T08:36:35.874Z,18.60
2023-05-24T08:39:05.113Z,18.59
2023-05-24T08:41:37.755Z,18.81
2023-05-24T08:44:08.114Z,18.90
2023-05-24T08:46:38.433Z,18.89
2023-05-24T08:49:09.289Z,18.43
2023-05-24T08:51:38.783Z,18.30
2023-05-24T08:54:07.954Z,18.22
2023-05-24T08:56:36.775Z,18.11
2023-05-24T08:59:05.203Z,18.29
2023-05-24T09:01:35.407Z,18.49
2023-05-24T09:04:06.629Z,18.88
2023-05-24T09:06:36.127Z,18.87
2023-05-24T09:09:05.091Z,19.07
2023-05-24T09:11:38.799Z,19.02
2023-05-24T09:14:07.957Z,19.08
2023-05-24T09:16:37.299Z,19.05
2023-05-24T09:19:07.156Z,19.10
2023-05-24T09:21:36.004Z,18.71
2023-05-24T09:24:04.638Z,18.82
2023-05-24T09:26:33.416Z,18.93
2023-05-24T09:29:01.968Z,18.91
2023-05-24T09:31:34.820Z,19.33
2023-05-24T09:34:03.398Z,18.83
2023-05-24T09:36:34.167Z,19.12
2023-05-24T09:39:10.241Z,19.29
2023-05-24T09:41:39.485Z,19.19
2023-05-24T09:44:08.261Z,19.27
2023-05-24T09:46:38.903Z,19.50
2023-05-24T09:49:08.632Z,19.11
2023-05-24T09:51:39.805Z,19.38
2023-05-24T09:54:09.706Z,19.07
2023-05-24T09:56:41.347Z,19.76
2023-05-24T09:59:11.534Z,20.31
2023-05-24T10:01:40.131Z,19.63
2023-05-24T10:04:10.197Z,19.77
2023-05-24T10:06:43.631Z,20.49
2023-05-24T10:09:14.217Z,20.56
2023-05-24T10:11:43.043Z,20.77
2023-05-24T10:14:11.612Z,20.62
2023-05-24T10:16:40.294Z,20.89
2023-05-24T10:19:08.749Z,21.14
2023-05-24T10:21:39.023Z,21.52
2023-05-24T10:24:11.218Z,21.94
2023-05-24T10:26:40.666Z,21.52
2023-05-24T10:29:11.434Z,21.17
2023-05-24T10:31:41.714Z,20.63
2023-05-24T10:34:10.543Z,20.15
2023-05-24T10:36:40.676Z,20.14
2023-05-24T10:39:13.008Z,20.44
2023-05-24T10:41:42.488Z,20.23
2023-05-24T10:44:14.315Z,20.64
2023-05-24T10:47:08.475Z,20.88
2023-05-24T10:49:37.269Z,20.29
2023-05-24T10:52:10.066Z,21.00
2023-05-24T10:54:46.989Z,21.10
2023-05-24T10:57:24.623Z,21.47
2023-05-24T10:59:53.234Z,20.97
2023-05-24T11:02:23.083Z,21.01
2023-05-24T11:04:51.483Z,20.81
2023-05-24T11:07:21.080Z,20.94
2023-05-24T11:09:56.983Z,20.71
2023-05-24T11:12:35.023Z,20.81
2023-05-24T11:15:04.703Z,20.48
2023-05-24T11:18:12.836Z,21.34
2023-05-24T11:20:42.895Z,20.78
2023-05-24T11:23:12.365Z,20.80
2023-05-24T11:25:42.167Z,21.13
2023-05-24T11:28:12.253Z,20.91
2023-05-24T11:30:41.997Z,20.94
2023-05-24T11:33:18.796Z,21.28
2023-05-24T11:35:47.168Z,20.62
2023-05-24T11:38:17.026Z,20.89
2023-05-24T11:40:48.819Z,21.04
2023-05-24T11:43:19.057Z,20.97
2023-05-24T11:45:49.148Z,20.97
2023-05-24T11:48:21.835Z,20.80
2023-05-24T11:50:50.557Z,20.85
2023-05-24T11:53:20.580Z,21.03
2023-05-24T11:55:51.531Z,21.12
2023-05-24T11:58:20.939Z,22.05
2023-05-24T12:00:49.595Z,21.35
2023-05-24T12:03:18.404Z,21.19
2023-05-24T12:05:47.215Z,21.17
2023-05-24T12:08:15.916Z,20.73
2023-05-24T12:10:44.799Z,20.98
2023-05-24T12:13:24.413Z,21.58
2023-05-24T12:15:55.887Z,21.26
2023-05-24T12:18:26.970Z,21.51
2023-05-24T12:20:55.377Z,21.38
2023-05-24T12:23:27.890Z,21.77
2023-05-24T12:25:59.993Z,21.83
2023-05-24T12:28:35.863Z,21.87
2023-05-24T12:31:04.859Z,21.67
2023-05-24T12:33:33.863Z,21.71
2023-05-24T12:36:02.105Z,21.71
2023-05-24T12:38:32.992Z,22.00
2023-05-24T12:41:11.516Z,21.71
2023-05-24T12:43:44.611Z,21.79
2023-05-24T12:46:13.304Z,22.28
2023-05-24T12:48:41.979Z,21.43
2023-05-24T12:51:11.582Z,21.54
2023-05-24T12:53:40.202Z,21.65
2023-05-24T12:56:09.276Z,21.97
2023-05-24T12:58:37.965Z,21.82
2023-05-24T13:01:07.889Z,22.09
2023-05-24T13:03:36.645Z,21.67
2023-05-24T13:06:05.124Z,21.29
2023-05-24T13:08:34.090Z,21.03
2023-05-24T13:11:02.461Z,20.86
2023-05-24T13:13:32.654Z,20.85
2023-05-24T13:16:00.858Z,20.85
2023-05-24T13:18:31.013Z,21.40
2023-05-24T13:21:00.905Z,21.24
2023-05-24T13:23:29.907Z,21.02
2023-05-24T13:25:58.566Z,20.74
2023-05-24T13:28:27.102Z,20.45
2023-05-24T13:30:55.610Z,20.47
2023-05-24T13:33:24.350Z,20.49
2023-05-24T13:35:54.635Z,20.97
2023-05-24T13:38:23.775Z,20.96
2023-05-24T13:40:53.576Z,20.91
2023-05-24T13:43:23.030Z,21.18
2023-05-24T13:45:51.602Z,21.01
2023-05-24T13:48:20.246Z,21.05
2023-05-24T13:50:48.701Z,21.22
2023-05-24T13:53:18.785Z,21.46
2023-05-24T13:55:47.076Z,21.11
2023-05-24T13:58:15.731Z,21.14
2023-05-24T14:00:44.283Z,21.21
2023-05-24T14:03:13.263Z,21.19
2023-05-24T14:05:42.173Z,21.34
2023-05-24T14:08:10.978Z,21.28
2023-05-24T14:10:41.093Z,21.43
2023-05-24T14:13:34.160Z,21.03
2023-05-24T14:16:01.254Z,20.82
2023-05-24T14:18:30.243Z,20.54
2023-05-24T14:20:58.534Z,20.20
2023-05-24T14:23:28.014Z,20.23
2023-05-24T14:25:57.790Z,20.55
2023-05-24T14:28:26.504Z,20.15
2023-05-24T14:30:55.082Z,20.08
2023-05-24T14:33:23.957Z,19.94
2023-05-24T14:35:52.274Z,19.98
2023-05-24T14:38:20.989Z,19.95
2023-05-24T14:40:49.388Z,19.75
2023-05-24T14:43:19.491Z,19.80
2023-05-24T14:45:47.884Z,19.36
2023-05-24T14:48:17.108Z,19.53
2023-05-24T14:50:45.510Z,19.55
2023-05-24T14:53:14.009Z,19.54
2023-05-24T14:55:43.963Z,19.86
2023-05-24T14:58:13.994Z,19.92
2023-05-24T15:00:44.433Z,20.07
2023-05-24T15:03:14.658Z,19.84
2023-05-24T15:05:43.267Z,19.80
2023-05-24T15:08:12.339Z,19.69
2023-05-24T15:10:41.127Z,19.58
2023-05-24T15:13:10.088Z,19.39
2023-05-24T15:15:38.407Z,19.12
2023-05-24T15:18:09.836Z,19.39
2023-05-24T15:20:38.363Z,18.99
2023-05-24T15:23:10.711Z,19.10
2023-05-24T15:25:39.272Z,19.09
2023-05-24T15:28:07.973Z,19.07
2023-05-24T15:30:36.209Z,19.10
2023-05-24T15:33:05.037Z,19.14
2023-05-24T15:35:34.901Z,19.45
2023-05-24T15:38:03.381Z,19.07
2023-05-24T15:40:32.014Z,19.12
2023-05-24T15:43:00.525Z,19.03
2023-05-24T15:45:29.217Z,19.20
2023-05-24T15:47:57.980Z,19.21
2023-05-24T15:50:47.499Z,19.30
2023-05-24T15:53:17.359Z,19.72
2023-05-24T15:55:47.198Z,19.35
2023-05-24T15:58:15.870Z,19.02
2023-05-24T16:00:44.326Z,18.98
2023-05-24T16:03:15.913Z,19.05
2023-05-24T16:05:44.269Z,20.00
2023-05-24T16:08:13.334Z,19.03
2023-05-24T16:10:44.503Z,19.13
2023-05-24T16:13:13.425Z,18.95
2023-05-24T16:15:42.721Z,18.84
2023-05-24T16:18:11.817Z,18.91
2023-05-24T16:20:40.345Z,18.87
2023-05-24T16:23:09.121Z,18.92
2023-05-24T16:25:37.703Z,18.97
2023-05-24T16:28:07.547Z,19.25
2023-05-24T16:30:36.842Z,19.08
2023-05-24T16:33:05.976Z,19.01
2023-05-24T16:35:34.604Z,19.12
2023-05-24T16:38:03.245Z,18.90
2023-05-24T16:40:31.819Z,18.90
2023-05-24T16:43:00.424Z,18.84
2023-05-24T16:45:30.603Z,19.13
2023-05-24T16:47:59.124Z,18.70
2023-05-24T16:50:27.826Z,18.59
2023-05-24T16:52:56.521Z,18.44
2023-05-24T16:55:25.108Z,18.50
2023-05-24T16:57:53.488Z,18.50
2023-05-24T17:00:23.252Z,18.51
2023-05-24T17:02:53.182Z,18.67
2023-05-24T17:05:21.895Z,18.32
2023-05-24T17:07:50.299Z,18.39
2023-05-24T17:10:19.234Z,18.26
2023-05-24T17:12:48.710Z,18.18
2023-05-24T17:15:17.439Z,18.18
2023-05-24T17:17:45.796Z,18.13
2023-05-24T17:20:16.294Z,18.51
2023-05-24T17:22:44.742Z,18.15
2023-05-24T17:25:13.396Z,18.16
2023-05-24T17:27:41.818Z,18.07
2023-05-24T17:30:11.319Z,18.18
2023-05-24T17:32:39.689Z,17.99
2023-05-24T17:35:09.501Z,18.10
2023-05-24T17:37:39.274Z,18.25
2023-05-24T17:40:09.261Z,18.17
2023-05-24T17:42:37.720Z,17.90
2023-05-24T17:45:07.483Z,18.17
2023-05-24T17:47:35.848Z,17.92
2023-05-24T17:50:04.741Z,17.94
2023-05-24T17:52:33.464Z,17.84
2023-05-24T17:55:04.145Z,18.18
2023-05-24T17:57:32.371Z,17.91
2023-05-24T18:00:00.913Z,17.81
2023-05-24T18:02:32.358Z,17.83
2023-05-24T18:05:01.415Z,17.76
2023-05-24T18:07:30.481Z,17.81
2023-05-24T18:10:00.579Z,17.73
2023-05-24T18:12:30.875Z,18.03
2023-05-24T18:14:59.644Z,17.82
2023-05-24T18:17:28.371Z,17.77
2023-05-24T18:19:57.312Z,17.87
2023-05-24T18:22:25.562Z,17.77
2023-05-24T18:24:54.255Z,17.86
2023-05-24T18:27:22.669Z,17.85
2023-05-24T18:29:52.737Z,18.25
2023-05-24T18:32:21.434Z,17.91
2023-05-24T18:34:50.189Z,17.89
2023-05-24T18:37:20.013Z,17.90
2023-05-24T18:39:48.649Z,17.96
2023-05-24T18:42:17.184Z,17.92
2023-05-24T18:44:47.180Z,18.24
2023-05-24T18:47:17.157Z,18.29
2023-05-24T18:49:46.318Z,17.91
2023-05-24T18:52:15.902Z,18.06
2023-05-24T18:54:44.465Z,17.91
2023-05-24T18:57:13.202Z,17.94
2023-05-24T18:59:43.439Z,17.95
2023-05-24T19:02:11.932Z,18.03
2023-05-24T19:04:42.042Z,18.25
2023-05-24T19:07:11.076Z,18.00
2023-05-24T19:09:39.822Z,17.91
2023-05-24T19:12:11.016Z,17.91
2023-05-24T19:14:41.524Z,17.79
2023-05-24T19:17:10.069Z,17.74
2023-05-24T19:19:39.020Z,17.76
2023-05-24T19:22:09.486Z,18.00
2023-05-24T19:24:38.119Z,17.67
2023-05-24T19:27:06.835Z,17.73
2023-05-24T19:29:35.633Z,17.62
2023-05-24T19:32:04.198Z,17.67
2023-05-24T19:34:35.666Z,17.58
2023-05-24T19:37:04.235Z,17.58
2023-05-24T19:39:34.404Z,17.83
2023-05-24T19:42:03.039Z,17.59
2023-05-24T19:44:33.129Z,17.65
2023-05-24T19:47:06.327Z,17.57
2023-05-24T19:49:37.506Z,17.52
2023-05-24T19:52:06.892Z,17.58
2023-05-24T19:54:38.681Z,17.81
2023-05-24T19:57:10.643Z,17.55
2023-05-24T19:59:39.299Z,17.37
2023-05-24T20:02:08.125Z,17.52
2023-05-24T20:04:41.602Z,17.32
2023-05-24T20:07:09.885Z,17.31
2023-05-24T20:09:41.804Z,17.60
2023-05-24T20:12:11.070Z,17.29
2023-05-24T20:14:39.747Z,17.25
2023-05-24T20:17:08.140Z,17.32
2023-05-24T20:19:37.045Z,17.33
2023-05-24T20:22:05.738Z,17.29
2023-05-24T20:24:34.638Z,17.27
2023-05-24T20:27:04.471Z,17.62
2023-05-24T20:29:33.036Z,17.23
2023-05-24T20:32:01.289Z,17.21
2023-05-24T20:34:29.800Z,17.13
2023-05-24T20:36:58.145Z,17.22
2023-05-24T20:39:26.756Z,17.06
2023-05-24T20:41:56.203Z,17.06
2023-05-24T20:44:26.904Z,17.37
2023-05-24T20:46:55.317Z,17.09
2023-05-24T20:49:24.100Z,17.09
2023-05-24T20:51:52.357Z,17.07
2023-05-24T20:54:20.844Z,16.99
2023-05-24T20:56:49.626Z,17.10
2023-05-24T20:59:18.340Z,16.97
2023-05-24T21:01:48.160Z,17.36
2023-05-24T21:04:16.964Z,17.00
2023-05-24T21:06:45.418Z,17.07
2023-05-24T21:09:14.101Z,16.84
2023-05-24T21:11:44.251Z,16.92
2023-05-24T21:14:13.431Z,16.88
2023-05-24T21:16:41.777Z,16.96
2023-05-24T21:19:11.888Z,17.22
2023-05-24T21:21:40.313Z,16.88
2023-05-24T21:24:09.229Z,16.91
2023-05-24T21:26:37.684Z,16.91
2023-05-24T21:29:06.387Z,16.80
2023-05-24T21:31:36.051Z,16.91
2023-05-24T21:34:04.721Z,16.78
2023-05-24T21:36:34.494Z,17.12
2023-05-24T21:39:07.994Z,16.77
2023-05-24T21:41:36.496Z,16.71
2023-05-24T21:44:07.139Z,16.71
2023-05-24T21:46:36.624Z,16.75
2023-05-24T21:49:05.341Z,16.65
2023-05-24T21:51:35.087Z,17.06
2023-05-24T21:54:03.743Z,16.63
2023-05-24T21:56:32.075Z,16.66
2023-05-24T21:59:00.554Z,16.62
2023-05-24T22:01:29.425Z,16.68
2023-05-24T22:03:58.597Z,16.66
2023-05-24T22:06:27.054Z,16.75
2023-05-24T22:09:02.033Z,16.95
2023-05-24T22:11:30.619Z,16.72
2023-05-24T22:13:59.356Z,16.51
2023-05-24T22:16:27.654Z,16.55
2023-05-24T22:18:56.987Z,16.74
2023-05-24T22:21:26.384Z,16.61
2023-05-24T22:23:56.471Z,16.88
2023-05-24T22:26:27.105Z,16.54
2023-05-24T22:29:01.017Z,16.77
2023-05-24T22:31:31.284Z,16.45
2023-05-24T22:34:02.340Z,16.61
2023-05-24T22:36:33.559Z,16.61
2023-05-24T22:39:03.876Z,16.85
2023-05-24T22:41:32.562Z,16.50
2023-05-24T22:44:01.520Z,16.61
2023-05-24T22:46:30.009Z,16.46
2023-05-24T22:49:03.196Z,16.50
2023-05-24T22:51:31.570Z,16.45
2023-05-24T22:54:00.057Z,16.43
2023-05-24T22:56:29.729Z,16.76
2023-05-24T22:58:58.356Z,16.46
2023-05-24T23:01:28.232Z,16.44
2023-05-24T23:04:07.776Z,16.51
2023-05-24T23:06:45.818Z,16.43
2023-05-24T23:09:14.581Z,16.43
2023-05-24T23:11:44.534Z,16.70
2023-05-24T23:14:14.482Z,16.45
2023-05-24T23:16:45.709Z,16.32
2023-05-24T23:19:18.739Z,16.57
2023-05-24T23:21:47.633Z,16.38
2023-05-24T23:24:16.610Z,16.46
2023-05-24T23:26:46.347Z,16.69
2023-05-24T23:29:15.029Z,16.30
2023-05-24T23:31:43.477Z,16.21
2023-05-24T23:34:12.052Z,16.31
2023-05-24T23:36:40.375Z,16.20
2023-05-24T23:39:10.981Z,16.16
2023-05-24T23:41:39.556Z,16.32
2023-05-24T23:44:09.543Z,16.52
2023-05-24T23:46:37.973Z,16.26
2023-05-24T23:49:06.651Z,16.14
2023-05-24T23:51:35.325Z,16.19
2023-05-24T23:54:04.065Z,16.07
2023-05-24T23:56:32.414Z,16.00
2023-05-24T23:59:01.481Z,16.04
